Time;durP1;ratioP1;P1;durP2;ratioP2;P2;SDS_P1;SDS_P2;PMS_P1;PMS_P2;Temp;Humidity;BMP_temperature;BMP_pressure;BME280_temperature;BME280_humidity;BME280_pressure;Samples;Min_cycle;Max_cycle;Signal;HPM_P1;HPM_P2
2022/11/10 00:00:45;;;;;;;62.90;59.27;;;12.10;99.90;;;;;;5093174;28;20467;-52
2022/11/10 00:03:11;;;;;;;64.13;60.10;;;12.10;99.90;;;;;;5093126;28;20459;-51
2022/11/10 00:05:38;;;;;;;58.25;54.83;;;12.10;99.90;;;;;;5092355;28;20385;-54
2022/11/10 00:08:05;;;;;;;66.82;62.65;;;12.20;99.90;;;;;;5092851;28;20390;-55
2022/11/10 00:10:31;;;;;;;66.88;62.92;;;12.20;99.90;;;;;;5093923;28;20668;-55
2022/11/10 00:13:01;;;;;;;72.50;68.35;;;12.20;99.90;;;;;;5093347;28;20394;-52
2022/11/10 00:18:11;;;;;;;62.50;58.78;;;12.10;99.90;;;;;;5092598;28;20677;-51
2022/11/10 00:20:47;;;;;;;67.50;63.53;;;12.00;99.90;;;;;;5093072;28;20382;-53
2022/11/10 00:23:12;;;;;;;63.80;59.93;;;12.00;99.90;;;;;;5094689;28;20864;-53
2022/11/10 00:25:38;;;;;;;61.53;57.93;;;12.00;99.90;;;;;;5097602;28;20492;-49
2022/11/10 00:28:03;;;;;;;63.85;59.70;;;12.00;99.90;;;;;;5097512;28;20405;-54
2022/11/10 00:30:29;;;;;;;62.93;58.90;;;12.00;99.90;;;;;;5097568;28;20797;-54
2022/11/10 00:32:54;;;;;;;65.43;61.47;;;12.00;99.90;;;;;;5097203;28;20406;-51
2022/11/10 00:35:20;;;;;;;59.70;56.10;;;11.90;99.90;;;;;;5096913;28;20575;-52
2022/11/10 00:37:48;;;;;;;61.73;57.90;;;11.90;99.90;;;;;;5095868;28;20386;-54
2022/11/10 00:40:14;;;;;;;64.95;61.10;;;11.90;99.90;;;;;;5092128;28;20789;-56
2022/11/10 00:42:39;;;;;;;72.97;68.60;;;11.90;99.90;;;;;;5091229;28;20400;-51
2022/11/10 00:45:05;;;;;;;63.45;59.58;;;11.90;99.90;;;;;;5091324;28;20385;-54
2022/11/10 00:47:31;;;;;;;66.75;62.92;;;11.80;99.90;;;;;;5091548;28;20389;-51
2022/11/10 00:49:56;;;;;;;62.13;58.17;;;11.80;99.90;;;;;;5091645;28;20382;-54
2022/11/10 00:52:22;;;;;;;67.57;63.63;;;11.80;99.90;;;;;;5092541;28;20478;-52
2022/11/10 00:54:47;;;;;;;63.08;59.05;;;11.80;99.90;;;;;;5092470;28;20765;-49
2022/11/10 00:57:16;;;;;;;55.53;52.10;;;11.80;99.90;;;;;;5093131;28;20417;-52
2022/11/10 00:59:41;;;;;;;67.10;63.25;;;11.90;99.90;;;;;;5094344;28;20374;-51
2022/11/10 01:02:07;;;;;;;68.47;64.47;;;11.90;99.90;;;;;;5095452;28;20412;-51
2022/11/10 01:04:32;;;;;;;69.43;65.07;;;11.90;99.90;;;;;;5095359;28;20750;-50
2022/11/10 01:06:58;;;;;;;60.50;57.00;;;11.80;99.90;;;;;;5095091;28;20386;-49
2022/11/10 01:09:23;;;;;;;61.80;58.10;;;11.80;99.90;;;;;;5095104;28;20386;-49
2022/11/10 01:11:49;;;;;;;61.73;58.00;;;11.80;99.90;;;;;;5094578;28;20792;-54
2022/11/10 01:14:15;;;;;;;66.95;63.05;;;11.80;99.90;;;;;;5094840;28;20664;-49
2022/11/10 01:16:40;;;;;;;58.95;55.25;;;11.80;99.90;;;;;;5094136;28;20459;-54
2022/11/10 01:19:06;;;;;;;69.50;65.50;;;11.80;99.90;;;;;;5093825;28;20646;-51
2022/11/10 01:21:31;;;;;;;61.70;58.05;;;11.70;99.90;;;;;;5093458;28;20382;-55
2022/11/10 01:23:57;;;;;;;63.15;59.55;;;11.60;99.90;;;;;;5093125;28;20785;-52
2022/11/10 01:26:25;;;;;;;70.77;66.53;;;11.60;99.90;;;;;;5093401;28;20382;-52
2022/11/10 01:28:51;;;;;;;61.22;57.22;;;11.60;99.90;;;;;;5094673;28;20405;-53
2022/11/10 01:31:19;;;;;;;64.50;60.55;;;11.60;99.90;;;;;;5093421;28;20803;-51
2022/11/10 01:33:44;;;;;;;60.70;56.78;;;11.60;99.90;;;;;;5094903;28;20378;-51
2022/11/10 01:36:11;;;;;;;55.73;52.13;;;11.60;99.90;;;;;;5094030;28;20428;-53
2022/11/10 01:38:39;;;;;;;61.42;57.85;;;11.60;99.90;;;;;;5095212;28;20460;-54
2022/11/10 01:41:08;;;;;;;61.40;57.70;;;11.50;99.90;;;;;;5094028;28;20621;-52
2022/11/10 01:43:34;;;;;;;56.00;52.47;;;11.50;99.90;;;;;;5092975;28;20437;-54
2022/11/10 01:46:00;;;;;;;65.70;61.83;;;11.50;99.90;;;;;;5092928;28;20428;-54
2022/11/10 01:48:36;;;;;;;60.40;56.88;;;11.50;99.90;;;;;;5092756;28;20401;-55
2022/11/10 01:51:12;;;;;;;58.80;55.20;;;11.50;99.90;;;;;;5093962;28;20665;-56
2022/11/10 01:53:42;;;;;;;61.35;57.88;;;11.50;99.90;;;;;;5094103;28;20435;-56
2022/11/10 01:56:10;;;;;;;68.38;64.45;;;11.50;99.90;;;;;;5092745;28;20777;-56
2022/11/10 01:58:39;;;;;;;63.17;59.40;;;11.50;99.90;;;;;;5094137;28;20442;-55
2022/11/10 02:01:07;;;;;;;64.93;60.92;;;11.50;99.90;;;;;;5093454;28;20650;-55
2022/11/10 02:03:38;;;;;;;65.10;61.22;;;11.50;99.90;;;;;;5094249;28;20402;-52
2022/11/10 02:06:04;;;;;;;57.10;53.63;;;11.50;99.90;;;;;;5094151;28;20379;-53
2022/11/10 02:08:30;;;;;;;67.13;63.15;;;11.40;99.90;;;;;;5094138;28;20437;-53
2022/11/10 02:10:56;;;;;;;61.85;57.90;;;11.40;99.90;;;;;;5094145;28;20417;-55
2022/11/10 02:13:21;;;;;;;62.40;58.53;;;11.40;99.90;;;;;;5094378;28;20409;-53
2022/11/10 02:15:47;;;;;;;60.63;56.97;;;11.40;99.90;;;;;;5093056;28;20420;-53
2022/11/10 02:18:12;;;;;;;67.80;63.92;;;11.40;99.90;;;;;;5090371;28;20405;-54
2022/11/10 02:20:42;;;;;;;56.30;53.13;;;11.30;99.90;;;;;;5091214;28;20374;-55
2022/11/10 02:23:32;;;;;;;58.75;55.00;;;11.30;99.90;;;;;;5089399;28;20978;-51
2022/11/10 02:25:58;;;;;;;66.67;62.70;;;11.30;99.90;;;;;;5084378;28;20868;-53
2022/11/10 02:28:25;;;;;;;61.03;57.30;;;11.30;99.90;;;;;;5090513;28;20402;-52
2022/11/10 02:30:50;;;;;;;63.50;59.72;;;11.30;99.90;;;;;;5091251;28;20816;-54
2022/11/10 02:33:16;;;;;;;66.25;62.05;;;11.30;99.90;;;;;;5092253;28;20383;-51
2022/11/10 02:35:43;;;;;;;65.43;61.47;;;11.20;99.90;;;;;;5094162;28;20496;-51
2022/11/10 02:38:09;;;;;;;61.40;57.63;;;11.20;99.90;;;;;;5094193;28;20524;-51
2022/11/10 02:40:34;;;;;;;60.80;57.20;;;11.20;99.90;;;;;;5092470;28;20382;-51
2022/11/10 02:43:00;;;;;;;63.30;59.60;;;11.20;99.90;;;;;;5091831;28;20394;-52
2022/11/10 02:45:26;;;;;;;70.22;66.25;;;11.20;99.90;;;;;;5090692;28;20413;-54
2022/11/10 02:47:51;;;;;;;64.83;60.77;;;11.20;99.90;;;;;;5092060;28;20757;-54
2022/11/10 02:50:17;;;;;;;59.43;55.73;;;11.10;99.90;;;;;;5092119;28;20474;-48
2022/11/10 02:52:42;;;;;;;57.33;53.90;;;11.10;99.90;;;;;;5091625;28;20469;-55
2022/11/10 02:55:08;;;;;;;59.50;55.70;;;11.00;99.90;;;;;;5091537;28;20415;-56
2022/11/10 02:57:34;;;;;;;57.43;53.83;;;11.10;99.90;;;;;;5093493;28;20800;-49
2022/11/10 02:59:59;;;;;;;58.13;54.43;;;11.00;99.90;;;;;;5092702;28;20420;-54
2022/11/10 03:02:25;;;;;;;52.63;49.15;;;11.00;99.90;;;;;;5092206;28;20378;-54
2022/11/10 03:04:51;;;;;;;56.87;53.33;;;11.00;99.90;;;;;;5093909;28;20943;-52
2022/11/10 03:07:16;;;;;;;54.37;50.83;;;11.00;99.90;;;;;;5094440;28;20390;-54
2022/11/10 03:09:42;;;;;;;55.47;52.17;;;11.00;99.90;;;;;;5094996;28;20455;-56
2022/11/10 03:12:07;;;;;;;50.67;47.33;;;10.90;99.90;;;;;;5094182;28;20414;-51
2022/11/10 03:14:33;;;;;;;57.20;53.60;;;10.90;99.90;;;;;;5093682;28;20374;-53
2022/11/10 03:16:58;;;;;;;58.80;55.23;;;10.90;99.90;;;;;;5093330;28;20471;-53
2022/11/10 03:19:24;;;;;;;60.80;57.15;;;11.00;99.90;;;;;;5093928;28;20465;-51
2022/11/10 03:21:49;;;;;;;55.70;51.90;;;11.00;99.90;;;;;;5092529;28;20417;-53
2022/11/10 03:24:15;;;;;;;63.83;59.85;;;10.90;99.90;;;;;;5092820;28;20853;-55
2022/11/10 03:26:43;;;;;;;59.20;55.50;;;11.00;99.90;;;;;;5094685;28;20374;-52
2022/11/10 03:29:09;;;;;;;63.33;59.38;;;11.00;99.90;;;;;;5094629;28;20489;-49
2022/11/10 03:31:34;;;;;;;72.22;67.63;;;11.00;99.90;;;;;;5093354;28;20489;-56
2022/11/10 03:33:59;;;;;;;68.83;64.50;;;11.00;99.90;;;;;;5095452;28;20381;-54
2022/11/10 03:36:25;;;;;;;68.63;64.25;;;11.00;99.90;;;;;;5092725;28;20425;-54
2022/11/10 03:38:51;;;;;;;55.50;51.67;;;10.90;99.90;;;;;;5092077;28;20393;-53
2022/11/10 03:41:16;;;;;;;62.97;58.90;;;10.90;99.90;;;;;;5090632;28;20574;-53
2022/11/10 03:43:44;;;;;;;64.95;60.72;;;10.90;99.90;;;;;;5089747;28;20802;-52
2022/11/10 03:46:10;;;;;;;58.25;54.20;;;10.80;99.90;;;;;;5090526;28;20643;-53
2022/11/10 03:48:36;;;;;;;54.37;50.37;;;10.80;99.90;;;;;;5091842;28;20822;-52
2022/11/10 03:51:01;;;;;;;52.83;49.03;;;10.70;99.90;;;;;;5091902;28;20397;-53
2022/11/10 03:53:27;;;;;;;53.67;50.15;;;10.70;99.90;;;;;;5093984;28;20396;-54
2022/11/10 03:55:52;;;;;;;50.37;46.87;;;10.70;99.90;;;;;;5094241;28;20402;-53
2022/11/10 03:58:18;;;;;;;52.53;49.10;;;10.70;99.90;;;;;;5096454;28;20867;-55
2022/11/10 04:00:43;;;;;;;54.60;50.90;;;10.70;99.90;;;;;;5097779;28;20393;-52
2022/11/10 04:03:09;;;;;;;50.63;47.33;;;10.70;99.90;;;;;;5097905;28;20381;-55
2022/11/10 04:11:02;;;;;;;59.83;55.70;;;10.80;99.90;;;;;;5096893;28;20385;-51
2022/11/10 04:16:13;;;;;;;56.73;52.70;;;10.80;99.90;;;;;;5096914;28;20405;-53
2022/11/10 04:18:38;;;;;;;59.00;55.03;;;10.80;99.90;;;;;;5096645;28;20387;-50
2022/11/10 04:21:04;;;;;;;61.10;57.03;;;10.80;99.90;;;;;;5095332;28;20382;-54
2022/11/10 04:23:35;;;;;;;57.22;53.13;;;10.80;99.90;;;;;;5094484;28;20389;-54
2022/11/10 04:26:27;;;;;;;56.55;52.38;;;10.90;99.90;;;;;;5095035;28;20382;-53
2022/11/10 04:28:59;;;;;;;64.53;60.40;;;10.80;99.90;;;;;;5094614;28;20976;-53
2022/11/10 04:31:27;;;;;;;62.33;57.97;;;10.80;99.90;;;;;;5095479;28;20541;-55
2022/11/10 04:33:53;;;;;;;59.72;55.53;;;10.80;99.90;;;;;;5095923;28;20374;-53
2022/11/10 04:36:21;;;;;;;59.03;54.80;;;10.80;99.90;;;;;;5094305;28;20460;-52
2022/11/10 04:38:47;;;;;;;58.95;54.95;;;10.80;99.90;;;;;;5094977;28;20635;-55
2022/11/10 04:41:14;;;;;;;64.22;59.40;;;10.80;99.90;;;;;;5095531;28;20531;-51
2022/11/10 04:43:40;;;;;;;60.17;55.83;;;10.80;99.90;;;;;;5096772;28;20488;-50
2022/11/10 04:46:09;;;;;;;68.65;63.67;;;10.80;99.90;;;;;;5095040;28;20382;-50
2022/11/10 04:48:35;;;;;;;65.65;60.95;;;10.80;99.90;;;;;;5095109;28;20449;-53
2022/11/10 04:51:05;;;;;;;68.33;63.43;;;10.80;99.90;;;;;;5093759;28;20389;-56
2022/11/10 04:53:31;;;;;;;68.18;63.00;;;10.80;99.90;;;;;;5093761;28;20535;-52
2022/11/10 04:55:57;;;;;;;60.35;55.97;;;10.80;99.90;;;;;;5093774;28;20588;-51
2022/11/10 04:58:22;;;;;;;66.03;61.10;;;10.80;99.90;;;;;;5093244;28;20789;-54
2022/11/10 05:00:48;;;;;;;62.17;57.67;;;10.80;99.90;;;;;;5093599;28;20378;-54
2022/11/10 05:03:14;;;;;;;65.35;60.67;;;10.80;99.90;;;;;;5093505;28;20378;-56
2022/11/10 05:05:40;;;;;;;62.05;57.40;;;10.80;99.90;;;;;;5094257;28;20386;-51
2022/11/10 05:08:06;;;;;;;62.30;57.60;;;10.80;99.90;;;;;;5094564;28;20473;-50
2022/11/10 05:10:33;;;;;;;59.10;54.67;;;10.80;99.90;;;;;;5092830;28;20381;-58
2022/11/10 05:12:59;;;;;;;69.63;64.28;;;10.80;99.90;;;;;;5076863;28;20402;-54
2022/11/10 05:15:25;;;;;;;61.73;57.40;;;10.80;99.90;;;;;;5092917;28;20401;-52
2022/11/10 05:17:52;;;;;;;70.17;64.93;;;10.80;99.90;;;;;;5090406;28;20377;-56
2022/11/10 05:20:20;;;;;;;63.03;58.25;;;10.80;99.90;;;;;;5088623;28;20378;-56
2022/11/10 05:23:36;;;;;;;64.03;59.33;;;10.80;99.90;;;;;;5091102;28;20461;-56
2022/11/10 05:25:35;;;;;;;63.92;59.42;;;10.80;99.90;;;;;;5090420;28;20422;-52
2022/11/10 05:28:01;;;;;;;63.08;58.30;;;10.80;99.90;;;;;;5089700;28;20405;-57
2022/11/10 05:30:26;;;;;;;59.60;55.03;;;10.80;99.90;;;;;;5089647;28;20818;-56
2022/11/10 05:32:52;;;;;;;64.47;59.60;;;10.80;99.90;;;;;;5089301;28;20707;-54
2022/11/10 05:35:17;;;;;;;62.03;57.30;;;10.70;99.90;;;;;;5089888;28;20421;-54
2022/11/10 05:37:43;;;;;;;64.03;59.53;;;10.70;99.90;;;;;;5087682;28;20414;-51
2022/11/10 05:40:08;;;;;;;67.85;63.22;;;10.70;99.90;;;;;;5087159;28;20541;-53
2022/11/10 05:42:42;;;;;;;64.20;59.15;;;10.70;99.90;;;;;;5088043;28;20413;-56
2022/11/10 05:45:08;;;;;;;63.13;58.30;;;10.70;99.90;;;;;;5087211;28;20400;-55
2022/11/10 05:47:36;;;;;;;58.50;53.67;;;10.70;99.90;;;;;;5088332;28;20513;-53
2022/11/10 05:50:01;;;;;;;59.33;54.15;;;10.70;99.90;;;;;;5088987;28;20394;-56
2022/11/10 05:52:34;;;;;;;64.30;59.77;;;10.70;99.90;;;;;;5090930;28;20751;-53
2022/11/10 05:55:00;;;;;;;71.95;66.90;;;10.70;99.90;;;;;;5090910;28;20708;-54
2022/11/10 05:57:26;;;;;;;63.67;59.07;;;10.70;99.90;;;;;;5088592;28;20451;-52
2022/11/10 05:59:51;;;;;;;67.70;62.60;;;10.70;99.90;;;;;;5087188;28;20389;-51
2022/11/10 06:02:17;;;;;;;66.07;61.30;;;10.60;99.90;;;;;;5088855;28;20635;-53
2022/11/10 06:04:43;;;;;;;61.38;56.75;;;10.60;99.90;;;;;;5089336;28;20791;-55
2022/11/10 06:07:08;;;;;;;63.77;58.93;;;10.60;99.90;;;;;;5087979;28;20737;-56
2022/11/10 06:09:34;;;;;;;63.10;58.83;;;10.70;99.90;;;;;;5088042;28;20389;-53
2022/11/10 06:12:00;;;;;;;65.05;60.38;;;10.70;99.90;;;;;;5088970;28;20462;-52
2022/11/10 06:14:26;;;;;;;60.53;55.80;;;10.60;99.90;;;;;;5088980;28;20366;-51
2022/11/10 06:16:51;;;;;;;62.92;57.95;;;10.60;99.90;;;;;;5088105;28;20827;-56
2022/11/10 06:19:17;;;;;;;65.45;60.85;;;10.60;99.90;;;;;;5090034;28;20500;-49
2022/11/10 06:21:43;;;;;;;55.20;51.30;;;10.50;99.90;;;;;;5087947;28;20646;-53
2022/11/10 06:24:09;;;;;;;65.47;60.67;;;10.50;99.90;;;;;;5085592;28;20750;-51
2022/11/10 06:26:35;;;;;;;63.38;58.67;;;10.50;99.90;;;;;;5087475;28;20397;-54
2022/11/10 06:29:01;;;;;;;62.75;57.95;;;10.50;99.90;;;;;;5087988;28;20609;-51
2022/11/10 06:31:27;;;;;;;64.25;59.65;;;10.50;99.90;;;;;;5088833;28;20397;-53
2022/11/10 06:33:54;;;;;;;62.25;57.40;;;10.60;99.90;;;;;;5086160;28;20797;-49
2022/11/10 06:36:21;;;;;;;66.18;61.60;;;10.60;99.90;;;;;;5085712;28;20409;-54
2022/11/10 06:38:47;;;;;;;62.35;57.88;;;10.50;99.90;;;;;;5085407;28;20446;-54
2022/11/10 06:41:12;;;;;;;62.00;57.67;;;10.60;99.90;;;;;;5084672;28;20383;-52
2022/11/10 06:43:38;;;;;;;63.70;59.10;;;10.50;99.90;;;;;;5086690;28;20693;-54
2022/11/10 06:46:04;;;;;;;65.95;61.33;;;10.60;99.90;;;;;;5086770;28;20390;-53
2022/11/10 06:48:29;;;;;;;63.17;58.47;;;10.50;99.90;;;;;;5084741;28;20382;-53
2022/11/10 06:50:59;;;;;;;58.67;54.58;;;10.50;99.90;;;;;;5084755;28;20681;-53
2022/11/10 06:53:25;;;;;;;63.87;59.10;;;10.50;99.90;;;;;;5083811;28;20374;-52
2022/11/10 06:55:51;;;;;;;62.90;58.50;;;10.50;99.90;;;;;;5082092;28;20398;-55
2022/11/10 06:58:17;;;;;;;67.60;62.77;;;10.50;99.90;;;;;;5082905;28;20393;-53
2022/11/10 07:00:42;;;;;;;59.03;54.78;;;10.50;99.90;;;;;;5079456;28;20382;-54
2022/11/10 07:03:11;;;;;;;56.77;52.87;;;10.50;99.90;;;;;;5079817;28;20685;-57
2022/11/10 07:05:38;;;;;;;58.45;54.05;;;10.50;99.90;;;;;;5081702;28;20374;-50
2022/11/10 07:08:12;;;;;;;59.75;55.17;;;10.50;99.90;;;;;;5080772;28;20653;-54
2022/11/10 07:10:38;;;;;;;61.60;56.63;;;10.50;99.90;;;;;;5078652;28;20653;-50
2022/11/10 07:13:04;;;;;;;62.13;57.83;;;10.50;99.90;;;;;;5076934;28;20390;-55
2022/11/10 07:15:30;;;;;;;63.42;58.97;;;10.50;99.90;;;;;;5077842;28;20400;-54
2022/11/10 07:17:55;;;;;;;56.23;51.90;;;10.50;99.90;;;;;;5073820;28;20390;-52
2022/11/10 07:20:21;;;;;;;62.30;57.97;;;10.50;99.90;;;;;;5074915;28;20783;-55
2022/11/10 07:22:47;;;;;;;58.73;54.53;;;10.40;99.90;;;;;;5073969;28;20865;-55
2022/11/10 07:25:13;;;;;;;56.30;52.23;;;10.40;99.90;;;;;;5076500;28;20582;-53
2022/11/10 07:27:38;;;;;;;60.73;56.40;;;10.50;99.90;;;;;;5075397;28;20405;-54
2022/11/10 07:30:05;;;;;;;65.30;60.87;;;10.50;99.90;;;;;;5076782;28;20668;-49
2022/11/10 07:32:31;;;;;;;62.53;57.92;;;10.50;99.90;;;;;;5076895;28;20620;-54
2022/11/10 07:34:56;;;;;;;63.50;59.00;;;10.50;99.90;;;;;;5074620;28;20688;-56
2022/11/10 07:37:22;;;;;;;60.63;56.00;;;10.50;99.90;;;;;;5075282;28;20579;-49
2022/11/10 07:39:47;;;;;;;63.75;58.80;;;10.40;99.90;;;;;;5079877;28;20410;-51
2022/11/10 07:42:12;;;;;;;64.83;60.03;;;10.50;99.90;;;;;;5078210;28;20765;-51
2022/11/10 07:44:38;;;;;;;69.50;64.37;;;10.60;99.90;;;;;;5077639;28;20845;-55
2022/11/10 07:47:04;;;;;;;61.80;57.13;;;10.60;99.90;;;;;;5076416;28;20389;-56
2022/11/10 07:49:29;;;;;;;62.33;57.42;;;10.60;99.90;;;;;;5076434;28;20739;-51
2022/11/10 07:51:55;;;;;;;63.47;58.70;;;10.60;99.90;;;;;;5076008;28;20748;-55
2022/11/10 07:54:20;;;;;;;65.57;60.38;;;10.60;99.90;;;;;;5073895;28;20400;-56
2022/11/10 07:56:46;;;;;;;67.93;62.47;;;10.70;99.90;;;;;;5075254;28;20405;-54
2022/11/10 07:59:11;;;;;;;73.00;67.50;;;10.60;99.90;;;;;;5077361;28;20423;-55
2022/11/10 08:01:37;;;;;;;65.53;60.50;;;10.60;99.90;;;;;;5076446;28;20725;-54
2022/11/10 08:04:03;;;;;;;64.33;59.67;;;10.60;99.90;;;;;;5076407;28;20374;-50
2022/11/10 08:06:29;;;;;;;58.33;53.87;;;10.60;99.90;;;;;;5074860;28;20513;-55
2022/11/10 08:08:54;;;;;;;62.57;57.97;;;10.60;99.90;;;;;;5076145;28;20374;-54
2022/11/10 08:11:20;;;;;;;66.97;61.73;;;10.70;99.90;;;;;;5078144;28;20389;-55
2022/11/10 08:13:45;;;;;;;69.57;64.35;;;10.70;99.90;;;;;;5076140;28;20748;-53
2022/11/10 08:16:11;;;;;;;64.10;59.13;;;10.70;99.90;;;;;;5075631;28;20609;-53
2022/11/10 08:18:37;;;;;;;69.83;64.47;;;10.70;99.90;;;;;;5076032;28;20723;-55
2022/11/10 08:21:08;;;;;;;71.47;65.97;;;10.70;99.90;;;;;;5076506;28;20390;-50
2022/11/10 08:23:34;;;;;;;71.95;66.65;;;10.70;99.90;;;;;;5077352;28;20374;-54
2022/11/10 08:26:00;;;;;;;68.83;63.43;;;10.80;99.90;;;;;;5076627;28;20397;-52
2022/11/10 08:28:27;;;;;;;68.38;63.13;;;10.80;99.90;;;;;;5078743;28;20512;-53
2022/11/10 08:30:52;;;;;;;63.85;58.53;;;10.80;99.90;;;;;;5075212;28;20752;-50
2022/11/10 08:33:19;;;;;;;68.85;63.42;;;10.90;99.90;;;;;;5077700;28;20390;-53
2022/11/10 08:35:50;;;;;;;62.55;57.75;;;10.90;99.90;;;;;;5077850;28;20473;-54
2022/11/10 08:38:20;;;;;;;62.17;57.33;;;10.90;99.90;;;;;;5074571;28;20610;-55
2022/11/10 08:40:46;;;;;;;65.78;60.92;;;10.90;99.90;;;;;;5073938;28;20506;-53
2022/11/10 08:43:14;;;;;;;65.38;60.15;;;11.00;99.90;;;;;;5071550;28;20923;-55
2022/11/10 08:45:42;;;;;;;70.22;64.70;;;11.00;99.90;;;;;;5081281;28;20418;-55
2022/11/10 08:48:16;;;;;;;71.28;66.07;;;11.00;99.90;;;;;;5081821;28;20374;-55
2022/11/10 08:50:43;;;;;;;72.65;66.63;;;11.00;99.90;;;;;;5079073;28;20889;-57
2022/11/10 08:53:14;;;;;;;70.05;64.85;;;11.10;99.90;;;;;;5078514;28;20428;-51
2022/11/10 08:55:41;;;;;;;67.68;62.20;;;11.10;99.90;;;;;;5077279;28;20765;-55
2022/11/10 08:58:13;;;;;;;75.40;69.50;;;11.10;99.90;;;;;;5077151;28;20488;-53
2022/11/10 09:00:40;;;;;;;72.05;66.45;;;11.10;99.90;;;;;;5079959;28;20377;-55
2022/11/10 09:03:17;;;;;;;66.00;61.03;;;11.20;99.90;;;;;;5078160;28;20378;-54
2022/11/10 09:05:44;;;;;;;71.30;65.95;;;11.20;99.90;;;;;;5080500;28;20389;-51
2022/11/10 09:08:11;;;;;;;63.88;58.67;;;11.20;99.90;;;;;;5082946;28;20385;-54
2022/11/10 09:10:42;;;;;;;68.82;63.20;;;11.20;99.90;;;;;;5083228;28;20382;-51
2022/11/10 09:13:10;;;;;;;71.35;65.82;;;11.20;99.90;;;;;;5083646;28;20492;-52
2022/11/10 09:15:36;;;;;;;65.43;60.10;;;11.20;99.90;;;;;;5085214;28;20386;-54
2022/11/10 09:18:03;;;;;;;71.90;66.53;;;11.20;99.90;;;;;;5085988;28;20379;-56
2022/11/10 09:20:32;;;;;;;74.07;68.32;;;11.30;99.90;;;;;;5085909;28;20384;-54
2022/11/10 09:23:07;;;;;;;66.63;61.67;;;11.30;99.90;;;;;;5086577;28;20786;-52
2022/11/10 09:25:33;;;;;;;68.45;62.75;;;11.40;99.90;;;;;;5087394;28;20385;-56
2022/11/10 09:27:58;;;;;;;75.00;69.32;;;11.40;99.90;;;;;;5086955;28;20485;-52
2022/11/10 09:30:25;;;;;;;67.70;62.72;;;11.40;99.90;;;;;;5086290;28;20939;-52
2022/11/10 09:32:55;;;;;;;72.05;66.28;;;11.40;99.90;;;;;;5085245;28;20394;-53
2022/11/10 09:35:21;;;;;;;74.90;69.30;;;11.60;99.90;;;;;;5088349;28;20394;-50
2022/11/10 09:37:47;;;;;;;74.82;69.15;;;11.70;99.90;;;;;;5088841;28;20512;-51
2022/11/10 09:40:24;;;;;;;78.30;72.68;;;11.70;99.90;;;;;;5089198;28;20481;-51
2022/11/10 09:42:55;;;;;;;71.57;66.47;;;11.80;99.90;;;;;;5087160;28;20393;-54
2022/11/10 09:45:32;;;;;;;71.85;66.40;;;11.80;99.90;;;;;;5087952;28;20460;-53
2022/11/10 09:48:04;;;;;;;74.57;69.32;;;11.80;99.90;;;;;;5085312;28;20390;-49
2022/11/10 09:51:01;;;;;;;77.07;71.88;;;11.90;99.90;;;;;;5085103;28;20739;-50
2022/11/10 09:53:40;;;;;;;80.32;74.25;;;11.90;99.90;;;;;;5084440;28;20382;-46
2022/11/10 09:56:10;;;;;;;81.60;76.10;;;12.00;99.90;;;;;;5086697;28;20468;-52
2022/11/10 09:58:44;;;;;;;79.07;73.20;;;11.90;99.90;;;;;;5087228;28;20650;-52
2022/11/10 10:01:41;;;;;;;74.07;68.90;;;12.00;99.90;;;;;;5085875;28;20414;-50
2022/11/10 10:04:13;;;;;;;76.60;71.13;;;12.10;99.90;;;;;;5088442;28;20378;-50
2022/11/10 10:07:04;;;;;;;85.32;79.47;;;12.10;99.90;;;;;;5087147;28;20397;-49
2022/11/10 10:09:37;;;;;;;76.10;70.63;;;12.10;99.90;;;;;;5088848;28;20405;-53
2022/11/10 10:12:24;;;;;;;77.70;71.88;;;12.10;99.90;;;;;;5087815;28;20789;-53
2022/11/10 10:14:58;;;;;;;77.32;71.70;;;12.10;99.90;;;;;;5086993;28;20378;-55
2022/11/10 10:17:33;;;;;;;78.40;72.80;;;12.00;99.90;;;;;;5084936;28;20420;-55
2022/11/10 10:20:15;;;;;;;73.60;68.13;;;12.00;99.90;;;;;;5083746;28;20381;-56
2022/11/10 10:23:07;;;;;;;81.50;75.88;;;12.10;99.90;;;;;;5086370;28;20386;-54
2022/11/10 10:25:33;;;;;;;71.45;66.32;;;12.10;99.90;;;;;;5087080;28;20455;-53
2022/11/10 10:28:18;;;;;;;80.82;74.97;;;12.10;99.90;;;;;;5085034;28;20894;-52
2022/11/10 10:30:44;;;;;;;71.57;66.28;;;12.20;99.90;;;;;;5082697;28;20389;-54
2022/11/10 10:33:18;;;;;;;75.85;70.57;;;12.30;99.90;;;;;;5082782;28;20382;-53
2022/11/10 10:35:46;;;;;;;75.75;70.18;;;12.30;99.90;;;;;;5080588;28;20398;-56
2022/11/10 10:38:28;;;;;;;81.72;76.15;;;12.30;99.90;;;;;;5082666;28;20386;-55
2022/11/10 10:40:58;;;;;;;85.22;79.63;;;12.30;99.90;;;;;;5081971;28;20378;-51
2022/11/10 10:43:24;;;;;;;78.32;72.55;;;12.40;99.90;;;;;;5081160;28;20696;-55
2022/11/10 10:46:08;;;;;;;77.37;72.00;;;12.40;99.90;;;;;;5084564;28;20420;-51
2022/11/10 10:48:33;;;;;;;77.07;71.75;;;12.50;99.90;;;;;;5083504;28;20382;-55
2022/11/10 10:50:59;;;;;;;79.97;74.68;;;12.50;99.90;;;;;;5082129;28;20415;-52
2022/11/10 10:53:27;;;;;;;81.17;75.80;;;12.60;99.90;;;;;;5083356;28;20384;-54
2022/11/10 10:56:14;;;;;;;82.97;76.47;;;12.60;99.90;;;;;;5081775;28;20398;-55
2022/11/10 10:58:59;;;;;;;76.00;70.87;;;12.70;99.90;;;;;;5082455;28;20398;-56
2022/11/10 11:01:33;;;;;;;82.10;75.93;;;12.70;99.90;;;;;;5083854;28;20417;-56
2022/11/10 11:04:03;;;;;;;87.28;81.38;;;12.60;99.90;;;;;;5086363;28;20370;-53
2022/11/10 11:06:31;;;;;;;79.37;73.73;;;12.60;99.90;;;;;;5086585;28;20473;-55
2022/11/10 11:09:14;;;;;;;81.40;75.80;;;12.60;99.90;;;;;;5086107;28;20838;-52
2022/11/10 11:11:42;;;;;;;87.33;81.60;;;12.60;99.90;;;;;;5088463;28;20479;-55
2022/11/10 11:14:25;;;;;;;83.90;78.25;;;12.60;99.90;;;;;;5087563;28;20404;-55
2022/11/10 11:16:53;;;;;;;81.72;76.32;;;12.60;99.90;;;;;;5088020;28;20520;-57
2022/11/10 11:19:41;;;;;;;84.55;78.75;;;12.70;99.90;;;;;;5087950;28;20521;-55
2022/11/10 11:22:23;;;;;;;78.88;72.57;;;12.70;99.90;;;;;;5087589;28;20469;-56
2022/11/10 11:25:28;;;;;;;87.63;81.20;;;12.70;99.90;;;;;;5088460;28;20681;-56
2022/11/10 11:28:02;;;;;;;77.43;71.88;;;12.70;99.90;;;;;;5088079;28;20455;-56
2022/11/10 11:30:37;;;;;;;82.35;76.88;;;12.70;99.90;;;;;;5087921;28;20384;-56
2022/11/10 11:33:09;;;;;;;76.63;71.53;;;12.60;99.90;;;;;;5090445;28;20417;-56
2022/11/10 11:35:46;;;;;;;80.03;74.60;;;12.70;99.90;;;;;;5088439;28;20770;-53
2022/11/10 11:38:26;;;;;;;80.95;75.63;;;12.70;99.90;;;;;;5087893;28;20374;-52
2022/11/10 11:41:12;;;;;;;84.22;78.55;;;12.80;99.90;;;;;;5087036;28;20378;-55
2022/11/10 11:44:10;;;;;;;79.72;74.32;;;12.80;99.90;;;;;;5085308;28;20490;-53
2022/11/10 11:46:52;;;;;;;81.50;75.63;;;12.80;99.90;;;;;;5084597;28;20378;-54
2022/11/10 11:49:46;;;;;;;78.03;72.63;;;12.80;99.90;;;;;;5084724;28;20382;-55
2022/11/10 11:52:37;;;;;;;81.43;76.10;;;12.80;99.90;;;;;;5085257;28;20393;-56
2022/11/10 11:55:40;;;;;;;87.95;81.82;;;12.90;99.90;;;;;;5084351;28;20789;-54
2022/11/10 11:58:43;;;;;;;77.57;72.18;;;13.00;99.90;;;;;;5086333;28;20394;-53
2022/11/10 12:01:18;;;;;;;86.03;80.13;;;12.90;99.90;;;;;;5082966;28;20472;-55
2022/11/10 12:03:54;;;;;;;78.28;73.10;;;13.00;99.90;;;;;;5084321;28;20381;-54
2022/11/10 12:06:39;;;;;;;70.15;65.00;;;13.00;99.90;;;;;;5082198;28;20434;-54
2022/11/10 12:09:19;;;;;;;77.75;72.60;;;13.00;99.90;;;;;;5083669;28;20405;-54
2022/11/10 12:11:50;;;;;;;75.13;70.30;;;13.00;99.90;;;;;;5083376;28;20398;-55
2022/11/10 12:14:23;;;;;;;72.03;67.03;;;13.10;99.90;;;;;;5083558;28;20882;-54
2022/11/10 12:17:04;;;;;;;72.30;67.75;;;13.10;99.90;;;;;;5085448;28;20405;-53
2022/11/10 12:20:22;;;;;;;72.50;67.60;;;13.10;99.90;;;;;;5086643;28;20413;-56
2022/11/10 12:23:22;;;;;;;76.40;71.53;;;13.20;99.90;;;;;;5077104;28;20381;-56
2022/11/10 12:26:13;;;;;;;78.07;72.97;;;13.20;99.90;;;;;;5084971;28;20405;-56
2022/11/10 12:28:53;;;;;;;75.32;70.22;;;13.30;99.90;;;;;;5082937;28;20666;-56
2022/11/10 12:31:22;;;;;;;72.22;67.00;;;13.30;99.90;;;;;;5079214;28;20465;-54
2022/11/10 12:34:03;;;;;;;69.60;64.78;;;13.30;99.90;;;;;;5081510;28;20378;-54
2022/11/10 12:36:30;;;;;;;77.03;72.13;;;13.30;99.90;;;;;;5082778;28;20410;-54
2022/11/10 12:39:14;;;;;;;82.00;76.72;;;13.30;99.90;;;;;;5085751;28;20392;-55
2022/11/10 12:42:05;;;;;;;83.00;77.68;;;13.30;99.90;;;;;;5083559;28;20469;-56
2022/11/10 12:44:38;;;;;;;76.00;71.13;;;13.30;99.90;;;;;;5081895;28;20789;-52
2022/11/10 12:47:14;;;;;;;74.47;69.57;;;13.30;99.90;;;;;;5084696;28;20465;-54
2022/11/10 12:49:52;;;;;;;80.30;74.95;;;13.30;99.90;;;;;;5082485;28;20402;-52
2022/11/10 12:52:28;;;;;;;67.03;62.80;;;13.30;99.90;;;;;;5087246;28;20458;-56